Time,TemperatureF,DewpointF,PressureIn,WindDirection,WindDirectionDegrees,WindSpeedMPH,WindSpeedGustMPH,Humidity,HourlyPrecipIn,Conditions,Clouds,dailyrainin,SoftwareType,DateUTC
2013-06-10 00:02:00,72.9,64.5,29.75,NNE,19,0.0,0.0,75,0.00,,,0.00,Wunderground v.1.15,2013-06-10 05:02:00,
2013-06-10 00:08:00,72.1,64.5,29.75,NNE,19,0.0,1.0,77,0.00,,,0.00,Wunderground v.1.15,2013-06-10 05:08:00,
2013-06-10 00:13:00,71.8,62.7,29.75,NNE,19,1.0,2.0,73,0.00,,,0.00,Wunderground v.1.15,2013-06-10 05:13:00,
2013-06-10 00:19:00,71.6,62.5,29.75,NNE,19,1.0,2.0,73,0.00,,,0.00,Wunderground v.1.15,2013-06-10 05:19:00,
2013-06-10 00:24:00,71.6,62.9,29.75,NNE,19,1.0,1.0,74,0.00,,,0.00,Wunderground v.1.15,2013-06-10 05:24:00,
2013-06-10 00:29:00,71.3,63.3,29.75,NNE,19,1.0,1.0,76,0.00,,,0.00,Wunderground v.1.15,2013-06-10 05:29:00,
2013-06-10 00:34:00,71.1,63.1,29.75,NNE,19,1.0,1.0,76,0.00,,,0.00,Wunderground v.1.15,2013-06-10 05:34:00,
2013-06-10 00:40:00,70.7,62.8,29.75,NNE,20,1.0,3.0,76,0.00,,,0.00,Wunderground v.1.15,2013-06-10 05:40:00,
2013-06-10 00:47:00,70.4,62.5,29.75,NNE,20,1.0,3.0,76,0.00,,,0.00,Wunderground v.1.15,2013-06-10 05:47:00,
2013-06-10 00:53:00,70.3,62.0,29.75,NNE,20,1.0,2.0,75,0.00,,,0.00,Wunderground v.1.15,2013-06-10 05:53:00,
2013-06-10 00:58:00,70.4,62.1,29.75,NNE,20,2.0,2.0,75,0.00,,,0.00,Wunderground v.1.15,2013-06-10 05:58:00,
2013-06-10 01:04:00,70.4,61.7,29.75,NNE,20,2.0,3.0,74,0.00,,,0.00,Wunderground v.1.15,2013-06-10 06:04:00,
2013-06-10 01:10:00,70.7,61.2,29.75,NNE,20,3.0,3.0,72,0.00,,,0.00,Wunderground v.1.15,2013-06-10 06:10:00,
2013-06-10 01:15:00,71.1,61.2,29.75,NNE,20,3.0,4.0,71,0.00,,,0.00,Wunderground v.1.15,2013-06-10 06:15:00,
2013-06-10 01:21:00,71.4,61.5,29.75,NE,36,4.0,4.0,71,0.00,,,0.00,Wunderground v.1.15,2013-06-10 06:21:00,
2013-06-10 01:26:00,71.7,61.8,29.74,NE,42,4.0,5.0,71,0.00,,,0.00,Wunderground v.1.15,2013-06-10 06:26:00,
2013-06-10 01:31:00,71.6,61.7,29.74,NE,42,4.0,4.0,71,0.00,,,0.00,Wunderground v.1.15,2013-06-10 06:31:00,
2013-06-10 01:37:00,71.6,61.3,29.74,NE,42,3.0,4.0,70,0.00,,,0.00,Wunderground v.1.15,2013-06-10 06:37:00,
2013-06-10 01:43:00,71.5,61.2,29.74,NE,42,3.0,3.0,70,0.00,,,0.00,Wunderground v.1.15,2013-06-10 06:43:00,
2013-06-10 01:48:00,71.1,62.8,29.74,NE,42,2.0,3.0,75,0.00,,,0.00,Wunderground v.1.15,2013-06-10 06:48:00,
2013-06-10 01:54:00,70.5,61.8,29.74,NE,42,1.0,2.0,74,0.00,,,0.00,Wunderground v.1.15,2013-06-10 06:54:00,
2013-06-10 01:59:00,70.1,61.8,29.74,NE,42,1.0,2.0,75,0.00,,,0.00,Wunderground v.1.15,2013-06-10 06:59:00,
2013-06-10 02:04:00,69.7,61.8,29.74,NE,42,1.0,2.0,76,0.00,,,0.00,Wunderground v.1.15,2013-06-10 07:04:00,
2013-06-10 02:09:00,69.3,61.0,29.74,NE,42,2.0,2.0,75,0.00,,,0.00,Wunderground v.1.15,2013-06-10 07:09:00,
2013-06-10 02:15:00,68.6,62.2,29.75,South,191,3.0,4.0,80,0.00,,,0.00,Wunderground v.1.15,2013-06-10 07:15:00,
2013-06-10 02:20:00,68.3,62.2,29.75,South,188,4.0,6.0,81,0.00,,,0.00,Wunderground v.1.15,2013-06-10 07:20:00,
2013-06-10 02:26:00,68.6,62.2,29.75,South,175,4.0,6.0,80,0.00,,,0.00,Wunderground v.1.15,2013-06-10 07:26:00,
2013-06-10 02:31:00,68.9,62.5,29.74,South,175,4.0,4.0,80,0.00,,,0.00,Wunderground v.1.15,2013-06-10 07:31:00,
2013-06-10 02:37:00,68.6,62.2,29.74,South,175,1.0,4.0,80,0.00,,,0.00,Wunderground v.1.15,2013-06-10 07:37:00,
2013-06-10 02:43:00,68.4,62.3,29.74,South,175,0.0,0.0,81,0.00,,,0.00,Wunderground v.1.15,2013-06-10 07:43:00,
2013-06-10 02:48:00,68.5,62.4,29.74,South,175,1.0,3.0,81,0.00,,,0.00,Wunderground v.1.15,2013-06-10 07:48:00,
2013-06-10 02:54:00,68.4,62.7,29.74,SSE,153,3.0,4.0,82,0.00,,,0.00,Wunderground v.1.15,2013-06-10 07:54:00,
2013-06-10 02:59:00,68.4,62.7,29.74,SSE,153,3.0,4.0,82,0.00,,,0.00,Wunderground v.1.15,2013-06-10 07:59:00,
2013-06-10 03:04:00,68.3,62.6,29.74,SSE,153,3.0,3.0,82,0.00,,,0.00,Wunderground v.1.15,2013-06-10 08:04:00,
2013-06-10 03:12:00,68.1,63.1,29.75,SSE,153,3.0,4.0,84,0.00,,,0.00,Wunderground v.1.15,2013-06-10 08:12:00,
2013-06-10 03:18:00,67.9,62.5,29.74,SSE,153,3.0,5.0,83,0.00,,,0.00,Wunderground v.1.15,2013-06-10 08:18:00,
2013-06-10 03:23:00,68.0,62.6,29.74,ESE,110,3.0,4.0,83,0.00,,,0.00,Wunderground v.1.15,2013-06-10 08:23:00,
2013-06-10 03:29:00,68.1,62.7,29.74,ESE,103,3.0,5.0,83,0.00,,,0.00,Wunderground v.1.15,2013-06-10 08:29:00,
2013-06-10 03:35:00,68.1,62.4,29.74,ESE,110,3.0,4.0,82,0.00,,,0.00,Wunderground v.1.15,2013-06-10 08:35:00,
2013-06-10 03:40:00,68.1,62.7,29.74,ESE,115,3.0,4.0,83,0.00,,,0.00,Wunderground v.1.15,2013-06-10 08:40:00,
2013-06-10 03:46:00,68.0,62.3,29.74,ESE,115,2.0,3.0,82,0.00,,,0.00,Wunderground v.1.15,2013-06-10 08:46:00,
2013-06-10 03:51:00,67.8,62.4,29.74,ESE,104,2.0,4.0,83,0.00,,,0.00,Wunderground v.1.15,2013-06-10 08:51:00,
2013-06-10 03:56:00,67.6,62.6,29.74,ENE,65,3.0,5.0,84,0.00,,,0.00,Wunderground v.1.15,2013-06-10 08:56:00,
2013-06-10 04:02:00,67.5,62.5,29.74,ENE,57,4.0,5.0,84,0.00,,,0.00,Wunderground v.1.15,2013-06-10 09:02:00,
2013-06-10 04:08:00,67.5,62.2,29.74,NE,36,5.0,7.0,83,0.00,,,0.00,Wunderground v.1.15,2013-06-10 09:08:00,
2013-06-10 04:13:00,67.5,62.5,29.74,NE,48,4.0,6.0,84,0.00,,,0.00,Wunderground v.1.15,2013-06-10 09:13:00,
2013-06-10 04:19:00,67.4,62.7,29.74,NE,50,4.0,6.0,85,0.00,,,0.00,Wunderground v.1.15,2013-06-10 09:19:00,
2013-06-10 04:24:00,67.1,62.8,29.74,ENE,59,4.0,4.0,86,0.00,,,0.00,Wunderground v.1.15,2013-06-10 09:24:00,
2013-06-10 04:30:00,66.7,62.4,29.74,SE,142,4.0,4.0,86,0.00,,,0.00,Wunderground v.1.15,2013-06-10 09:30:00,
2013-06-10 04:35:00,66.3,62.6,29.74,SE,131,4.0,5.0,88,0.00,,,0.00,Wunderground v.1.15,2013-06-10 09:35:00,
2013-06-10 04:42:00,65.8,62.1,29.74,East,100,4.0,5.0,88,0.00,,,0.00,Wunderground v.1.15,2013-06-10 09:42:00,
2013-06-10 04:47:00,65.5,62.2,29.74,East,82,4.0,6.0,89,0.00,,,0.00,Wunderground v.1.15,2013-06-10 09:47:00,
2013-06-10 04:52:00,65.0,61.7,29.74,ENE,78,5.0,5.0,89,0.00,,,0.00,Wunderground v.1.15,2013-06-10 09:52:00,
2013-06-10 04:58:00,64.7,61.7,29.74,ESE,103,5.0,6.0,90,0.00,,,0.00,Wunderground v.1.15,2013-06-10 09:58:00,
2013-06-10 05:04:00,64.9,61.6,29.74,ESE,113,5.0,6.0,89,0.00,,,0.00,Wunderground v.1.15,2013-06-10 10:04:00,
2013-06-10 05:09:00,65.0,61.7,29.74,ESE,105,5.0,6.0,89,0.00,,,0.00,Wunderground v.1.15,2013-06-10 10:09:00,
2013-06-10 05:15:00,64.8,61.2,29.74,East,86,4.0,6.0,88,0.00,,,0.00,Wunderground v.1.15,2013-06-10 10:15:00,
2013-06-10 05:21:00,64.5,61.2,29.74,East,86,4.0,5.0,89,0.00,,,0.00,Wunderground v.1.15,2013-06-10 10:21:00,
2013-06-10 05:27:00,64.4,61.1,29.74,East,89,4.0,5.0,89,0.00,,,0.00,Wunderground v.1.15,2013-06-10 10:27:00,
2013-06-10 05:33:00,64.4,61.1,29.74,ESE,104,3.0,5.0,89,0.00,,,0.00,Wunderground v.1.15,2013-06-10 10:33:00,
2013-06-10 05:38:00,64.5,60.9,29.74,East,101,3.0,5.0,88,0.00,,,0.00,Wunderground v.1.15,2013-06-10 10:38:00,
2013-06-10 05:44:00,64.5,60.9,29.74,ESE,113,4.0,6.0,88,0.00,,,0.00,Wunderground v.1.15,2013-06-10 10:44:00,
2013-06-10 05:49:00,64.8,60.8,29.74,ESE,114,4.0,6.0,87,0.00,,,0.00,Wunderground v.1.15,2013-06-10 10:49:00,
2013-06-10 05:55:00,65.0,61.0,29.74,ESE,121,4.0,5.0,87,0.00,,,0.00,Wunderground v.1.15,2013-06-10 10:55:00,
2013-06-10 06:01:00,65.0,61.0,29.74,SE,128,4.0,5.0,87,0.00,,,0.00,Wunderground v.1.15,2013-06-10 11:01:00,
2013-06-10 06:06:00,65.1,61.1,29.74,ESE,120,3.0,5.0,87,0.00,,,0.00,Wunderground v.1.15,2013-06-10 11:06:00,
2013-06-10 06:11:00,65.2,61.2,29.74,ESE,111,4.0,5.0,87,0.00,,,0.00,Wunderground v.1.15,2013-06-10 11:11:00,
2013-06-10 06:16:00,65.3,61.0,29.74,ESE,121,4.0,5.0,86,0.00,,,0.00,Wunderground v.1.15,2013-06-10 11:16:00,
2013-06-10 06:22:00,65.3,61.3,29.74,SE,130,3.0,4.0,87,0.00,,,0.00,Wunderground v.1.15,2013-06-10 11:22:00,
2013-06-10 06:27:00,65.3,61.3,29.74,ESE,111,3.0,4.0,87,0.00,,,0.00,Wunderground v.1.15,2013-06-10 11:27:00,
2013-06-10 06:33:00,65.2,61.2,29.75,ESE,112,3.0,3.0,87,0.00,,,0.00,Wunderground v.1.15,2013-06-10 11:33:00,
2013-06-10 06:38:00,65.2,61.6,29.74,ESE,112,2.0,3.0,88,0.00,,,0.00,Wunderground v.1.15,2013-06-10 11:38:00,
2013-06-10 06:44:00,65.5,61.9,29.74,ESE,112,2.0,3.0,88,0.00,,,0.00,Wunderground v.1.15,2013-06-10 11:44:00,
2013-06-10 06:50:00,65.7,62.0,29.75,ESE,123,2.0,4.0,88,0.00,,,0.00,Wunderground v.1.15,2013-06-10 11:50:00,
2013-06-10 06:56:00,65.9,62.2,29.75,ESE,123,2.0,4.0,88,0.00,,,0.00,Wunderground v.1.15,2013-06-10 11:56:00,
2013-06-10 07:01:00,66.2,62.5,29.75,ESE,123,2.0,2.0,88,0.00,,,0.00,Wunderground v.1.15,2013-06-10 12:01:00,
2013-06-10 07:07:00,66.7,63.0,29.75,ESE,123,1.0,2.0,88,0.00,,,0.00,Wunderground v.1.15,2013-06-10 12:07:00,
2013-06-10 07:12:00,67.0,63.0,29.75,ESE,123,2.0,3.0,87,0.00,,,0.00,Wunderground v.1.15,2013-06-10 12:12:00,
2013-06-10 07:18:00,67.5,62.8,29.75,SSE,152,2.0,3.0,85,0.00,,,0.00,Wunderground v.1.15,2013-06-10 12:18:00,
2013-06-10 07:23:00,67.9,62.5,29.75,SSE,158,2.0,3.0,83,0.00,,,0.00,Wunderground v.1.15,2013-06-10 12:23:00,
2013-06-10 07:29:00,68.4,62.3,29.74,South,175,3.0,4.0,81,0.00,,,0.00,Wunderground v.1.15,2013-06-10 12:29:00,
2013-06-10 07:34:00,68.7,62.6,29.74,SSE,165,3.0,5.0,81,0.00,,,0.00,Wunderground v.1.15,2013-06-10 12:34:00,
2013-06-10 07:39:00,69.1,62.7,29.74,SSE,167,3.0,5.0,80,0.00,,,0.00,Wunderground v.1.15,2013-06-10 12:39:00,
2013-06-10 07:45:00,69.5,63.4,29.74,South,171,4.0,6.0,81,0.00,,,0.00,Wunderground v.1.15,2013-06-10 12:45:00,
2013-06-10 07:50:00,69.8,63.3,29.74,SSE,164,5.0,7.0,80,0.00,,,0.00,Wunderground v.1.15,2013-06-10 12:50:00,
2013-06-10 07:56:00,70.2,63.7,29.74,South,173,6.0,7.0,80,0.00,,,0.00,Wunderground v.1.15,2013-06-10 12:56:00,
2013-06-10 08:02:00,70.7,63.5,29.74,South,171,6.0,8.0,78,0.00,,,0.00,Wunderground v.1.15,2013-06-10 13:02:00,
2013-06-10 08:08:00,71.3,64.4,29.74,South,191,6.0,8.0,79,0.00,,,0.00,Wunderground v.1.15,2013-06-10 13:08:00,
2013-06-10 08:13:00,71.6,63.6,29.74,SSW,203,6.0,8.0,76,0.00,,,0.00,Wunderground v.1.15,2013-06-10 13:13:00,
2013-06-10 08:19:00,71.7,64.1,29.74,South,188,6.0,8.0,77,0.00,,,0.00,Wunderground v.1.15,2013-06-10 13:19:00,
2013-06-10 08:25:00,71.7,64.1,29.74,South,182,7.0,8.0,77,0.00,,,0.00,Wunderground v.1.15,2013-06-10 13:25:00,
2013-06-10 08:30:00,72.0,64.8,29.74,SSW,212,7.0,7.0,78,0.00,,,0.00,Wunderground v.1.15,2013-06-10 13:30:00,
2013-06-10 08:36:00,72.3,64.3,29.74,SW,225,7.0,11.0,76,0.00,,,0.00,Wunderground v.1.15,2013-06-10 13:36:00,
2013-06-10 08:42:00,72.5,64.9,29.75,South,177,7.0,8.0,77,0.00,,,0.00,Wunderground v.1.15,2013-06-10 13:42:00,
2013-06-10 08:47:00,72.8,65.2,29.75,South,190,6.0,8.0,77,0.00,,,0.00,Wunderground v.1.15,2013-06-10 13:47:00,
2013-06-10 08:53:00,73.2,64.8,29.75,SSW,196,6.0,9.0,75,0.00,,,0.00,Wunderground v.1.15,2013-06-10 13:53:00,
2013-06-10 08:58:00,73.7,65.7,29.75,South,188,7.0,9.0,76,0.00,,,0.00,Wunderground v.1.15,2013-06-10 13:58:00,
2013-06-10 09:03:00,74.0,66.3,29.75,SW,215,6.0,9.0,77,0.00,,,0.00,Wunderground v.1.15,2013-06-10 14:03:00,
2013-06-10 09:09:00,74.5,65.7,29.75,SSW,208,6.0,9.0,74,0.00,,,0.00,Wunderground v.1.15,2013-06-10 14:09:00,
2013-06-10 09:15:00,74.9,66.1,29.74,SSW,202,7.0,10.0,74,0.00,,,0.00,Wunderground v.1.15,2013-06-10 14:15:00,
2013-06-10 09:20:00,75.3,66.0,29.75,SSW,196,8.0,9.0,73,0.00,,,0.00,Wunderground v.1.15,2013-06-10 14:20:00,
2013-06-10 09:26:00,75.8,66.1,29.75,SSW,200,7.0,10.0,72,0.00,,,0.00,Wunderground v.1.15,2013-06-10 14:26:00,
2013-06-10 09:32:00,76.3,66.2,29.75,South,186,7.0,9.0,71,0.00,,,0.00,Wunderground v.1.15,2013-06-10 14:32:00,
2013-06-10 09:37:00,76.9,66.8,29.74,South,174,7.0,9.0,71,0.00,,,0.00,Wunderground v.1.15,2013-06-10 14:37:00,
2013-06-10 09:43:00,77.5,66.5,29.74,SW,216,7.0,8.0,69,0.00,,,0.00,Wunderground v.1.15,2013-06-10 14:43:00,
2013-06-10 09:49:00,78.0,67.0,29.74,SSW,192,7.0,8.0,69,0.00,,,0.00,Wunderground v.1.15,2013-06-10 14:49:00,
2013-06-10 09:54:00,78.3,66.9,29.74,South,188,7.0,8.0,68,0.00,,,0.00,Wunderground v.1.15,2013-06-10 14:54:00,
2013-06-10 10:00:00,78.9,67.9,29.74,South,175,7.0,7.0,69,0.00,,,0.00,Wunderground v.1.15,2013-06-10 15:00:00,
2013-06-10 10:05:00,79.8,67.0,29.74,SSW,200,7.0,9.0,65,0.00,,,0.00,Wunderground v.1.15,2013-06-10 15:05:00,
2013-06-10 10:11:00,80.2,66.9,29.73,SSW,202,7.0,9.0,64,0.00,,,0.00,Wunderground v.1.15,2013-06-10 15:11:00,
2013-06-10 10:17:00,80.8,66.6,29.73,SSW,195,7.0,9.0,62,0.00,,,0.00,Wunderground v.1.15,2013-06-10 15:17:00,
2013-06-10 10:22:00,81.2,66.5,29.73,SSE,165,7.0,10.0,61,0.00,,,0.00,Wunderground v.1.15,2013-06-10 15:22:00,
2013-06-10 10:27:00,81.6,65.9,29.73,South,182,8.0,10.0,59,0.00,,,0.00,Wunderground v.1.15,2013-06-10 15:27:00,
2013-06-10 10:33:00,82.1,66.8,29.73,SSW,198,8.0,10.0,60,0.00,,,0.00,Wunderground v.1.15,2013-06-10 15:33:00,
2013-06-10 10:39:00,82.7,65.4,29.73,South,176,8.0,11.0,56,0.00,,,0.00,Wunderground v.1.15,2013-06-10 15:39:00,
2013-06-10 10:44:00,83.0,65.7,29.73,SSW,211,8.0,11.0,56,0.00,,,0.00,Wunderground v.1.15,2013-06-10 15:44:00,
2013-06-10 10:50:00,83.2,66.9,29.73,SSW,205,8.0,8.0,58,0.00,,,0.00,Wunderground v.1.15,2013-06-10 15:50:00,
2013-06-10 10:55:00,83.5,66.2,29.72,South,188,8.0,14.0,56,0.00,,,0.00,Wunderground v.1.15,2013-06-10 15:55:00,
2013-06-10 11:01:00,83.9,67.0,29.72,South,187,9.0,11.0,57,0.00,,,0.00,Wunderground v.1.15,2013-06-10 16:01:00,
2013-06-10 11:06:00,83.9,66.0,29.72,SSW,207,9.0,13.0,55,0.00,,,0.00,Wunderground v.1.15,2013-06-10 16:06:00,
2013-06-10 11:11:00,84.3,67.4,29.72,SSW,211,8.0,8.0,57,0.00,,,0.00,Wunderground v.1.15,2013-06-10 16:11:00,
2013-06-10 11:17:00,84.4,66.5,29.72,SW,227,8.0,14.0,55,0.00,,,0.00,Wunderground v.1.15,2013-06-10 16:17:00,
2013-06-10 11:22:00,84.6,66.7,29.72,South,185,9.0,14.0,55,0.00,,,0.00,Wunderground v.1.15,2013-06-10 16:22:00,
2013-06-10 11:27:00,84.9,68.0,29.73,SW,227,8.0,14.0,57,0.00,,,0.00,Wunderground v.1.15,2013-06-10 16:27:00,
2013-06-10 11:33:00,85.2,67.2,29.73,SSW,202,8.0,14.0,55,0.00,,,0.00,Wunderground v.1.15,2013-06-10 16:33:00,
2013-06-10 11:38:00,85.4,66.9,29.73,SSW,207,9.0,14.0,54,0.00,,,0.00,Wunderground v.1.15,2013-06-10 16:38:00,
2013-06-10 11:44:00,85.8,67.2,29.72,SSW,200,9.0,16.0,54,0.00,,,0.00,Wunderground v.1.15,2013-06-10 16:44:00,
2013-06-10 11:49:00,85.8,66.7,29.72,SW,221,10.0,16.0,53,0.00,,,0.00,Wunderground v.1.15,2013-06-10 16:49:00,
2013-06-10 11:55:00,85.9,66.8,29.72,SSW,200,10.0,15.0,53,0.00,,,0.00,Wunderground v.1.15,2013-06-10 16:55:00,
2013-06-10 12:01:00,85.8,66.7,29.72,SW,227,10.0,14.0,53,0.00,,,0.00,Wunderground v.1.15,2013-06-10 17:01:00,
2013-06-10 12:07:00,86.3,66.6,29.72,SSW,212,9.0,14.0,52,0.00,,,0.00,Wunderground v.1.15,2013-06-10 17:07:00,
2013-06-10 12:13:00,86.8,67.6,29.72,SSW,208,10.0,13.0,53,0.00,,,0.00,Wunderground v.1.15,2013-06-10 17:13:00,
2013-06-10 12:19:00,87.0,66.7,29.72,SW,229,10.0,13.0,51,0.00,,,0.00,Wunderground v.1.15,2013-06-10 17:19:00,
2013-06-10 12:24:00,86.7,67.5,29.72,SSW,196,10.0,13.0,53,0.00,,,0.00,Wunderground v.1.15,2013-06-10 17:24:00,
2013-06-10 12:30:00,86.9,67.2,29.72,SSW,198,12.0,12.0,52,0.00,,,0.00,Wunderground v.1.15,2013-06-10 17:30:00,
2013-06-10 12:35:00,86.9,68.8,29.72,South,187,11.0,13.0,55,0.00,,,0.00,Wunderground v.1.15,2013-06-10 17:35:00,
2013-06-10 12:41:00,87.8,69.1,29.71,South,175,11.0,15.0,54,0.00,,,0.00,Wunderground v.1.15,2013-06-10 17:41:00,
2013-06-10 12:46:00,87.7,67.3,29.71,SSW,196,11.0,17.0,51,0.00,,,0.00,Wunderground v.1.15,2013-06-10 17:46:00,
2013-06-10 12:51:00,87.7,67.3,29.71,SW,215,11.0,12.0,51,0.00,,,0.00,Wunderground v.1.15,2013-06-10 17:51:00,
2013-06-10 12:57:00,87.7,66.8,29.71,SSW,209,11.0,15.0,50,0.00,,,0.00,Wunderground v.1.15,2013-06-10 17:57:00,
2013-06-10 13:02:00,87.9,66.9,29.71,SW,216,11.0,15.0,50,0.00,,,0.00,Wunderground v.1.15,2013-06-10 18:02:00,
2013-06-10 13:08:00,88.2,67.8,29.71,SW,219,10.0,15.0,51,0.00,,,0.00,Wunderground v.1.15,2013-06-10 18:08:00,
2013-06-10 13:14:00,88.8,69.5,29.70,SW,227,9.0,12.0,53,0.00,,,0.00,Wunderground v.1.15,2013-06-10 18:14:00,
2013-06-10 13:19:00,88.7,67.1,29.70,South,185,9.0,13.0,49,0.00,,,0.00,Wunderground v.1.15,2013-06-10 18:19:00,
2013-06-10 13:25:00,88.8,67.8,29.70,South,186,10.0,14.0,50,0.00,,,0.00,Wunderground v.1.15,2013-06-10 18:25:00,
2013-06-10 13:30:00,89.2,67.5,29.70,SW,225,10.0,13.0,49,0.00,,,0.00,Wunderground v.1.15,2013-06-10 18:30:00,
2013-06-10 13:36:00,89.0,67.9,29.70,SSW,206,11.0,15.0,50,0.00,,,0.00,Wunderground v.1.15,2013-06-10 18:36:00,
2013-06-10 13:41:00,89.2,68.1,29.70,SSW,198,11.0,15.0,50,0.00,,,0.00,Wunderground v.1.15,2013-06-10 18:41:00,
2013-06-10 13:47:00,89.4,67.7,29.69,SSW,209,11.0,15.0,49,0.00,,,0.00,Wunderground v.1.15,2013-06-10 18:47:00,
2013-06-10 13:52:00,89.7,68.6,29.69,SSW,196,11.0,14.0,50,0.00,,,0.00,Wunderground v.1.15,2013-06-10 18:52:00,
2013-06-10 13:58:00,89.9,68.8,29.69,SW,217,11.0,15.0,50,0.00,,,0.00,Wunderground v.1.15,2013-06-10 18:58:00,
2013-06-10 14:03:00,90.0,66.4,29.69,South,180,11.0,16.0,46,0.00,,,0.00,Wunderground v.1.15,2013-06-10 19:03:00,
2013-06-10 14:08:00,90.1,69.5,29.69,SSW,192,12.0,16.0,51,0.00,,,0.00,Wunderground v.1.15,2013-06-10 19:08:00,
2013-06-10 14:14:00,90.6,69.4,29.68,South,188,11.0,14.0,50,0.00,,,0.00,Wunderground v.1.15,2013-06-10 19:14:00,
2013-06-10 14:19:00,90.7,67.7,29.68,SSW,208,11.0,18.0,47,0.00,,,0.00,Wunderground v.1.15,2013-06-10 19:19:00,
2013-06-10 14:25:00,90.9,67.9,29.67,SSW,198,12.0,17.0,47,0.00,,,0.00,Wunderground v.1.15,2013-06-10 19:25:00,
2013-06-10 14:32:00,91.4,67.7,29.67,South,187,11.0,17.0,46,0.00,,,0.00,Wunderground v.1.15,2013-06-10 19:32:00,
2013-06-10 14:37:00,91.5,67.8,29.67,SW,233,11.0,17.0,46,0.00,,,0.00,Wunderground v.1.15,2013-06-10 19:37:00,
2013-06-10 14:43:00,91.6,68.5,29.67,South,177,12.0,18.0,47,0.00,,,0.00,Wunderground v.1.15,2013-06-10 19:43:00,
2013-06-10 14:49:00,91.9,68.8,29.67,South,190,11.0,18.0,47,0.00,,,0.00,Wunderground v.1.15,2013-06-10 19:49:00,
2013-06-10 14:54:00,92.1,67.7,29.67,SW,225,12.0,15.0,45,0.00,,,0.00,Wunderground v.1.15,2013-06-10 19:54:00,
2013-06-10 15:00:00,92.4,67.3,29.67,SW,219,12.0,12.0,44,0.00,,,0.00,Wunderground v.1.15,2013-06-10 20:00:00,
2013-06-10 15:05:00,92.5,68.1,29.67,SW,220,12.0,17.0,45,0.00,,,0.00,Wunderground v.1.15,2013-06-10 20:05:00,
2013-06-10 15:11:00,92.8,68.3,29.67,SSW,205,12.0,14.0,45,0.00,,,0.00,Wunderground v.1.15,2013-06-10 20:11:00,
2013-06-10 15:16:00,92.9,67.8,29.67,South,186,11.0,14.0,44,0.00,,,0.00,Wunderground v.1.15,2013-06-10 20:16:00,
2013-06-10 15:22:00,93.5,69.0,29.67,SW,218,10.0,13.0,45,0.00,,,0.00,Wunderground v.1.15,2013-06-10 20:22:00,
2013-06-10 15:27:00,93.7,70.4,29.67,South,178,10.0,17.0,47,0.00,,,0.00,Wunderground v.1.15,2013-06-10 20:27:00,
2013-06-10 15:33:00,93.6,67.1,29.67,SSW,200,12.0,17.0,42,0.00,,,0.00,Wunderground v.1.15,2013-06-10 20:33:00,
2013-06-10 15:39:00,93.7,67.8,29.67,SSW,211,12.0,17.0,43,0.00,,,0.00,Wunderground v.1.15,2013-06-10 20:39:00,
2013-06-10 15:44:00,93.8,69.2,29.66,SSW,206,12.0,17.0,45,0.00,,,0.00,Wunderground v.1.15,2013-06-10 20:44:00,
2013-06-10 15:50:00,94.2,69.6,29.66,SSW,204,11.0,11.0,45,0.00,,,0.00,Wunderground v.1.15,2013-06-10 20:50:00,
2013-06-10 15:55:00,94.5,67.2,29.66,SSW,207,10.0,14.0,41,0.00,,,0.00,Wunderground v.1.15,2013-06-10 20:55:00,
2013-06-10 16:01:00,94.5,67.9,29.66,SSW,199,10.0,14.0,42,0.00,,,0.00,Wunderground v.1.15,2013-06-10 21:01:00,
2013-06-10 16:06:00,94.6,70.0,29.66,SSW,200,10.0,14.0,45,0.00,,,0.00,Wunderground v.1.15,2013-06-10 21:06:00,
2013-06-10 16:12:00,95.0,68.3,29.66,SW,216,10.0,15.0,42,0.00,,,0.00,Wunderground v.1.15,2013-06-10 21:12:00,
2013-06-10 16:18:00,95.2,67.1,29.65,South,185,10.0,15.0,40,0.00,,,0.00,Wunderground v.1.15,2013-06-10 21:18:00,
2013-06-10 16:23:00,95.4,67.2,29.66,South,188,9.0,13.0,40,0.00,,,0.00,Wunderground v.1.15,2013-06-10 21:23:00,
2013-06-10 16:29:00,95.6,69.5,29.65,South,184,9.0,18.0,43,0.00,,,0.00,Wunderground v.1.15,2013-06-10 21:29:00,
2013-06-10 16:34:00,95.9,69.1,29.65,SSW,210,10.0,18.0,42,0.00,,,0.00,Wunderground v.1.15,2013-06-10 21:34:00,
2013-06-10 16:40:00,95.7,67.5,29.65,SSW,208,9.0,15.0,40,0.00,,,0.00,Wunderground v.1.15,2013-06-10 21:40:00,
2013-06-10 16:46:00,95.6,66.7,29.65,SSW,200,11.0,17.0,39,0.00,,,0.00,Wunderground v.1.15,2013-06-10 21:46:00,
2013-06-10 16:51:00,95.7,66.8,29.65,SSW,213,11.0,15.0,39,0.00,,,0.00,Wunderground v.1.15,2013-06-10 21:51:00,
2013-06-10 16:56:00,95.8,66.9,29.65,SSW,198,11.0,16.0,39,0.00,,,0.00,Wunderground v.1.15,2013-06-10 21:56:00,
2013-06-10 17:02:00,96.0,67.8,29.65,SSW,194,10.0,11.0,40,0.00,,,0.00,Wunderground v.1.15,2013-06-10 22:02:00,
2013-06-10 17:08:00,96.1,68.6,29.64,South,190,9.0,12.0,41,0.00,,,0.00,Wunderground v.1.15,2013-06-10 22:08:00,
2013-06-10 17:13:00,96.1,66.4,29.64,South,191,9.0,15.0,38,0.00,,,0.00,Wunderground v.1.15,2013-06-10 22:13:00,
2013-06-10 17:19:00,96.2,66.5,29.64,SW,217,9.0,16.0,38,0.00,,,0.00,Wunderground v.1.15,2013-06-10 22:19:00,
2013-06-10 17:24:00,96.2,67.2,29.64,SSW,205,9.0,16.0,39,0.00,,,0.00,Wunderground v.1.15,2013-06-10 22:24:00,
2013-06-10 17:30:00,96.3,68.1,29.64,SSW,197,9.0,9.0,40,0.00,,,0.00,Wunderground v.1.15,2013-06-10 22:30:00,
2013-06-10 17:35:00,96.4,65.1,29.64,South,191,9.0,17.0,36,0.00,,,0.00,Wunderground v.1.15,2013-06-10 22:35:00,
2013-06-10 17:41:00,96.2,64.9,29.64,SSW,205,10.0,13.0,36,0.00,,,0.00,Wunderground v.1.15,2013-06-10 22:41:00,
2013-06-10 17:46:00,96.3,68.1,29.64,SSW,198,9.0,16.0,40,0.00,,,0.00,Wunderground v.1.15,2013-06-10 22:46:00,
2013-06-10 17:52:00,96.2,65.7,29.64,SW,218,10.0,13.0,37,0.00,,,0.00,Wunderground v.1.15,2013-06-10 22:52:00,
2013-06-10 17:58:00,96.2,66.5,29.64,SSW,213,10.0,14.0,38,0.00,,,0.00,Wunderground v.1.15,2013-06-10 22:58:00,
2013-06-10 18:03:00,96.2,65.7,29.63,SSW,193,9.0,13.0,37,0.00,,,0.00,Wunderground v.1.15,2013-06-10 23:03:00,
2013-06-10 18:09:00,96.2,66.5,29.63,South,191,10.0,18.0,38,0.00,,,0.00,Wunderground v.1.15,2013-06-10 23:09:00,
2013-06-10 18:14:00,96.1,66.4,29.63,SSW,192,10.0,14.0,38,0.00,,,0.00,Wunderground v.1.15,2013-06-10 23:14:00,
2013-06-10 18:20:00,96.0,67.8,29.63,SSE,166,9.0,9.0,40,0.00,,,0.00,Wunderground v.1.15,2013-06-10 23:20:00,
2013-06-10 18:26:00,96.0,67.8,29.63,South,172,8.0,14.0,40,0.00,,,0.00,Wunderground v.1.15,2013-06-10 23:26:00,
2013-06-10 18:31:00,96.1,66.4,29.63,South,177,9.0,14.0,38,0.00,,,0.00,Wunderground v.1.15,2013-06-10 23:31:00,
2013-06-10 18:37:00,95.9,67.0,29.63,South,183,9.0,14.0,39,0.00,,,0.00,Wunderground v.1.15,2013-06-10 23:37:00,
2013-06-10 18:43:00,95.7,66.0,29.62,South,178,9.0,13.0,38,0.00,,,0.00,Wunderground v.1.15,2013-06-10 23:43:00,
2013-06-10 18:48:00,95.6,66.7,29.62,South,180,9.0,13.0,39,0.00,,,0.00,Wunderground v.1.15,2013-06-10 23:48:00,
2013-06-10 18:54:00,95.4,66.5,29.62,South,183,9.0,12.0,39,0.00,,,0.00,Wunderground v.1.15,2013-06-10 23:54:00,
2013-06-10 19:00:00,95.1,67.7,29.63,South,176,9.0,10.0,41,0.00,,,0.00,Wunderground v.1.15,2013-06-11 00:00:00,
2013-06-10 19:05:00,94.8,66.7,29.62,South,170,10.0,14.0,40,0.00,,,0.00,Wunderground v.1.15,2013-06-11 00:05:00,
2013-06-10 19:11:00,94.6,68.0,29.62,South,179,10.0,14.0,42,0.00,,,0.00,Wunderground v.1.15,2013-06-11 00:11:00,
2013-06-10 19:17:00,94.3,67.0,29.63,South,173,9.0,14.0,41,0.00,,,0.00,Wunderground v.1.15,2013-06-11 00:17:00,
2013-06-10 19:22:00,94.0,67.4,29.63,South,169,9.0,11.0,42,0.00,,,0.00,Wunderground v.1.15,2013-06-11 00:22:00,
2013-06-10 19:27:00,93.7,67.1,29.63,South,173,9.0,12.0,42,0.00,,,0.00,Wunderground v.1.15,2013-06-11 00:27:00,
2013-06-10 19:33:00,93.3,67.5,29.63,South,184,9.0,10.0,43,0.00,,,0.00,Wunderground v.1.15,2013-06-11 00:33:00,
2013-06-10 19:38:00,92.9,67.8,29.63,South,175,9.0,11.0,44,0.00,,,0.00,Wunderground v.1.15,2013-06-11 00:38:00,
2013-06-10 19:43:00,92.5,68.1,29.62,South,177,9.0,12.0,45,0.00,,,0.00,Wunderground v.1.15,2013-06-11 00:43:00,
2013-06-10 19:48:00,92.2,67.8,29.63,South,179,9.0,12.0,45,0.00,,,0.00,Wunderground v.1.15,2013-06-11 00:48:00,
2013-06-10 19:54:00,91.7,68.0,29.63,South,184,8.0,10.0,46,0.00,,,0.00,Wunderground v.1.15,2013-06-11 00:54:00,
2013-06-10 19:59:00,91.3,67.6,29.63,South,171,8.0,10.0,46,0.00,,,0.00,Wunderground v.1.15,2013-06-11 00:59:00,
2013-06-10 20:05:00,90.7,67.7,29.63,South,176,8.0,11.0,47,0.00,,,0.00,Wunderground v.1.15,2013-06-11 01:05:00,
2013-06-10 20:11:00,90.2,67.2,29.63,South,170,8.0,9.0,47,0.00,,,0.00,Wunderground v.1.15,2013-06-11 01:11:00,
2013-06-10 20:17:00,89.9,67.6,29.63,South,169,8.0,10.0,48,0.00,,,0.00,Wunderground v.1.15,2013-06-11 01:17:00,
2013-06-10 20:22:00,89.5,67.8,29.63,South,173,8.0,11.0,49,0.00,,,0.00,Wunderground v.1.15,2013-06-11 01:22:00,
2013-06-10 20:28:00,88.7,68.8,29.63,South,171,8.0,11.0,52,0.00,,,0.00,Wunderground v.1.15,2013-06-11 01:28:00,
2013-06-10 20:33:00,88.1,68.8,29.63,SSE,157,9.0,12.0,53,0.00,,,0.00,Wunderground v.1.15,2013-06-11 01:33:00,
2013-06-10 20:39:00,87.4,68.7,29.63,SSE,161,10.0,13.0,54,0.00,,,0.00,Wunderground v.1.15,2013-06-11 01:39:00,
2013-06-10 20:44:00,86.9,68.8,29.63,SSE,166,10.0,12.0,55,0.00,,,0.00,Wunderground v.1.15,2013-06-11 01:44:00,
2013-06-10 20:50:00,86.5,68.9,29.63,South,177,10.0,14.0,56,0.00,,,0.00,Wunderground v.1.15,2013-06-11 01:50:00,
2013-06-10 20:56:00,86.2,68.7,29.63,SSE,166,10.0,14.0,56,0.00,,,0.00,Wunderground v.1.15,2013-06-11 01:56:00,
2013-06-10 21:01:00,85.9,68.4,29.63,SSE,163,11.0,12.0,56,0.00,,,0.00,Wunderground v.1.15,2013-06-11 02:01:00,
2013-06-10 21:06:00,85.5,68.5,29.63,South,175,10.0,12.0,57,0.00,,,0.00,Wunderground v.1.15,2013-06-11 02:06:00,
2013-06-10 21:12:00,85.2,68.8,29.63,SSE,159,10.0,13.0,58,0.00,,,0.00,Wunderground v.1.15,2013-06-11 02:12:00,
2013-06-10 21:17:00,84.8,68.4,29.64,SSE,167,10.0,13.0,58,0.00,,,0.00,Wunderground v.1.15,2013-06-11 02:17:00,
2013-06-10 21:23:00,84.7,67.8,29.64,South,176,11.0,19.0,57,0.00,,,0.00,Wunderground v.1.15,2013-06-11 02:23:00,
2013-06-10 21:29:00,84.5,67.6,29.64,South,171,12.0,19.0,57,0.00,,,0.00,Wunderground v.1.15,2013-06-11 02:29:00,
2013-06-10 21:34:00,84.3,67.4,29.64,South,182,13.0,15.0,57,0.00,,,0.00,Wunderground v.1.15,2013-06-11 02:34:00,
2013-06-10 21:40:00,84.1,67.2,29.65,South,176,13.0,13.0,57,0.00,,,0.00,Wunderground v.1.15,2013-06-11 02:40:00,
2013-06-10 21:46:00,83.8,66.9,29.65,South,171,13.0,19.0,57,0.00,,,0.00,Wunderground v.1.15,2013-06-11 02:46:00,
2013-06-10 21:51:00,83.5,67.2,29.65,South,169,13.0,14.0,58,0.00,,,0.00,Wunderground v.1.15,2013-06-11 02:51:00,
2013-06-10 21:57:00,83.1,66.8,29.65,South,173,13.0,19.0,58,0.00,,,0.00,Wunderground v.1.15,2013-06-11 02:57:00,
2013-06-10 22:02:00,82.9,66.6,29.65,South,172,14.0,17.0,58,0.00,,,0.00,Wunderground v.1.15,2013-06-11 03:02:00,
2013-06-10 22:08:00,82.5,66.7,29.66,South,180,14.0,18.0,59,0.00,,,0.00,Wunderground v.1.15,2013-06-11 03:08:00,
2013-06-10 22:14:00,82.5,66.2,29.66,South,188,14.0,19.0,58,0.00,,,0.00,Wunderground v.1.15,2013-06-11 03:14:00,
2013-06-10 22:20:00,82.2,66.4,29.66,South,177,15.0,20.0,59,0.00,,,0.00,Wunderground v.1.15,2013-06-11 03:20:00,
2013-06-10 22:27:00,81.8,66.6,29.66,South,186,14.0,20.0,60,0.00,,,0.00,Wunderground v.1.15,2013-06-11 03:27:00,
2013-06-10 22:32:00,81.7,66.0,29.66,SSW,192,14.0,18.0,59,0.00,,,0.00,Wunderground v.1.15,2013-06-11 03:32:00,
2013-06-10 22:38:00,81.4,66.2,29.67,South,180,14.0,18.0,60,0.00,,,0.00,Wunderground v.1.15,2013-06-11 03:38:00,
2013-06-10 22:44:00,81.1,65.9,29.67,South,182,14.0,20.0,60,0.00,,,0.00,Wunderground v.1.15,2013-06-11 03:44:00,
2013-06-10 22:50:00,80.6,65.9,29.67,South,181,13.0,13.0,61,0.00,,,0.00,Wunderground v.1.15,2013-06-11 03:50:00,
2013-06-10 22:56:00,80.3,65.6,29.67,South,171,13.0,17.0,61,0.00,,,0.00,Wunderground v.1.15,2013-06-11 03:56:00,
2013-06-10 23:01:00,80.1,65.9,29.67,South,180,14.0,16.0,62,0.00,,,0.00,Wunderground v.1.15,2013-06-11 04:01:00,
2013-06-10 23:03:00,80.0,65.8,29.67,South,171,14.0,16.0,62,0.00,,,0.00,Wunderground v.1.15,2013-06-11 04:03:00,
2013-06-10 23:05:00,79.9,65.7,29.66,South,182,14.0,18.0,62,0.00,,,0.00,Wunderground v.1.15,2013-06-11 04:05:00,
2013-06-10 23:06:00,79.9,65.7,29.66,SSW,207,14.0,18.0,62,0.00,,,0.00,Wunderground v.1.15,2013-06-11 04:06:00,
2013-06-10 23:11:00,79.8,65.6,29.66,South,171,14.0,16.0,62,0.00,,,0.00,Wunderground v.1.15,2013-06-11 04:11:00,
2013-06-10 23:13:00,79.7,65.5,29.67,South,186,15.0,16.0,62,0.00,,,0.00,Wunderground v.1.15,2013-06-11 04:13:00,
2013-06-10 23:19:00,79.4,65.7,29.66,South,169,14.0,21.0,63,0.00,,,0.00,Wunderground v.1.15,2013-06-11 04:19:00,
2013-06-10 23:25:00,79.2,65.5,29.66,South,182,15.0,21.0,63,0.00,,,0.00,Wunderground v.1.15,2013-06-11 04:25:00,
2013-06-10 23:30:00,78.9,65.7,29.66,South,181,14.0,19.0,64,0.00,,,0.00,Wunderground v.1.15,2013-06-11 04:30:00,
2013-06-10 23:36:00,78.7,65.5,29.66,SSW,196,14.0,19.0,64,0.00,,,0.00,Wunderground v.1.15,2013-06-11 04:36:00,
2013-06-10 23:41:00,78.7,65.5,29.66,South,169,15.0,18.0,64,0.00,,,0.00,Wunderground v.1.15,2013-06-11 04:41:00,
2013-06-10 23:47:00,78.5,65.8,29.66,SSW,192,14.0,18.0,65,0.00,,,0.00,Wunderground v.1.15,2013-06-11 04:47:00,
2013-06-10 23:53:00,78.4,65.7,29.66,South,181,13.0,15.0,65,0.00,,,0.00,Wunderground v.1.15,2013-06-11 04:53:00,
2013-06-10 23:58:00,78.4,65.7,29.66,South,173,13.0,18.0,65,0.00,,,0.00,Wunderground v.1.15,2013-06-11 04:58:00,